createdAt,value
2023-03-21T00:00:23.715Z,19.55
2023-03-21T00:00:55.114Z,19.55
2023-03-21T00:01:26.563Z,19.54
2023-03-21T00:01:57.971Z,19.53
2023-03-21T00:02:29.435Z,19.55
2023-03-21T00:03:00.861Z,19.56
2023-03-21T00:03:32.299Z,19.53
2023-03-21T00:04:03.792Z,19.53
2023-03-21T00:04:48.487Z,19.51
2023-03-21T00:05:22.168Z,19.52
2023-03-21T00:05:53.859Z,19.51
2023-03-21T00:06:25.465Z,19.50
2023-03-21T00:06:56.923Z,19.50
2023-03-21T00:07:28.335Z,19.50
2023-03-21T00:08:01.173Z,19.49
2023-03-21T00:08:33.792Z,19.49
2023-03-21T00:09:05.187Z,19.48
2023-03-21T00:09:36.597Z,19.49
2023-03-21T00:10:15.427Z,19.49
2023-03-21T00:10:49.612Z,19.48
2023-03-21T00:11:21.018Z,19.47
2023-03-21T00:11:52.432Z,19.47
2023-03-21T00:12:23.941Z,19.46
2023-03-21T00:12:55.368Z,19.47
2023-03-21T00:13:26.779Z,19.46
2023-03-21T00:13:58.262Z,19.46
2023-03-21T00:14:29.757Z,19.47
2023-03-21T00:15:01.187Z,19.45
2023-03-21T00:15:42.656Z,19.44
2023-03-21T00:16:28.168Z,19.43
2023-03-21T00:17:03.035Z,19.42
2023-03-21T00:17:34.626Z,19.42
2023-03-21T00:18:06.039Z,19.41
2023-03-21T00:18:37.432Z,19.42
2023-03-21T00:19:08.826Z,19.41
2023-03-21T00:19:40.235Z,19.42
2023-03-21T00:20:11.623Z,19.42
2023-03-21T00:20:43.028Z,19.41
2023-03-21T00:21:46.160Z,19.40
2023-03-21T00:22:08.555Z,19.40
2023-03-21T00:22:40.350Z,19.40
2023-03-21T00:23:11.768Z,19.39
2023-03-21T00:23:43.210Z,19.39
2023-03-21T00:24:14.629Z,19.39
2023-03-21T00:24:46.088Z,19.39
2023-03-21T00:25:17.474Z,19.38
2023-03-21T00:25:48.892Z,19.38
2023-03-21T00:26:20.302Z,19.38
2023-03-21T00:26:51.981Z,19.36
2023-03-21T00:27:44.856Z,19.35
2023-03-21T00:28:14.818Z,19.34
2023-03-21T00:28:46.223Z,19.34
2023-03-21T00:29:17.677Z,19.35
2023-03-21T00:29:49.111Z,19.34
2023-03-21T00:30:20.544Z,19.35
2023-03-21T00:30:51.956Z,19.34
2023-03-21T00:31:23.362Z,19.32
2023-03-21T00:31:54.775Z,19.33
2023-03-21T00:32:26.198Z,19.32
2023-03-21T00:32:58.489Z,19.32
2023-03-21T00:33:32.894Z,19.31
2023-03-21T00:34:04.307Z,19.31
2023-03-21T00:34:48.399Z,19.31
2023-03-21T00:36:06.251Z,19.31
2023-03-21T00:36:11.784Z,19.29
2023-03-21T00:36:43.589Z,19.31
2023-03-21T00:37:15.012Z,19.29
2023-03-21T00:37:46.429Z,19.29
2023-03-21T00:38:17.844Z,19.29
2023-03-21T00:38:49.256Z,19.28
2023-03-21T00:39:20.689Z,19.26
2023-03-21T00:39:52.174Z,19.28
2023-03-21T00:40:29.486Z,19.26
2023-03-21T00:41:11.046Z,19.24
2023-03-21T00:41:49.019Z,19.24
2023-03-21T00:42:20.476Z,19.25
2023-03-21T00:42:51.886Z,19.23
2023-03-21T00:43:23.342Z,19.25
2023-03-21T00:43:54.729Z,19.22
2023-03-21T00:44:26.141Z,19.24
2023-03-21T00:44:57.545Z,19.23
2023-03-21T00:45:28.942Z,19.24
2023-03-21T00:46:00.343Z,19.21
2023-03-21T00:46:42.791Z,19.21
2023-03-21T00:47:18.569Z,19.21
2023-03-21T00:47:50.136Z,19.19
2023-03-21T00:48:21.661Z,19.20
2023-03-21T00:48:53.128Z,19.21
2023-03-21T00:49:24.525Z,19.19
2023-03-21T00:49:55.936Z,19.20
2023-03-21T00:50:27.329Z,19.20
2023-03-21T00:50:58.714Z,19.19
2023-03-21T00:51:30.111Z,19.18
2023-03-21T00:52:14.580Z,19.20
2023-03-21T00:52:47.358Z,19.18
2023-03-21T00:53:18.767Z,19.17
2023-03-21T00:53:50.182Z,19.17
2023-03-21T00:54:21.623Z,19.15
2023-03-21T00:54:53.079Z,19.16
2023-03-21T00:55:24.500Z,19.17
2023-03-21T00:55:55.889Z,19.15
2023-03-21T00:56:27.308Z,19.15
2023-03-21T00:56:58.711Z,19.15
2023-03-21T00:57:38.668Z,19.15
2023-03-21T00:58:11.141Z,19.12
2023-03-21T00:58:42.554Z,19.14
2023-03-21T00:59:13.959Z,19.13
2023-03-21T00:59:45.437Z,19.13
2023-03-21T01:00:16.867Z,19.13
2023-03-21T01:00:48.319Z,19.12
2023-03-21T01:01:19.739Z,19.11
2023-03-21T01:01:51.171Z,19.12
2023-03-21T01:02:22.734Z,19.12
2023-03-21T01:03:00.244Z,19.11
2023-03-21T01:03:32.829Z,19.10
2023-03-21T01:04:04.238Z,19.10
2023-03-21T01:04:35.645Z,19.08
2023-03-21T01:05:07.085Z,19.10
2023-03-21T01:05:38.640Z,19.07
2023-03-21T01:06:10.138Z,19.07
2023-03-21T01:06:41.544Z,19.07
2023-03-21T01:07:12.957Z,19.06
2023-03-21T01:07:44.376Z,19.06
2023-03-21T01:08:26.671Z,19.05
2023-03-21T01:09:00.896Z,19.05
2023-03-21T01:09:32.325Z,19.04
2023-03-21T01:10:03.726Z,19.04
2023-03-21T01:10:35.147Z,19.04
2023-03-21T01:11:06.549Z,19.04
2023-03-21T01:11:37.951Z,19.02
2023-03-21T01:12:09.393Z,19.03
2023-03-21T01:12:40.800Z,19.02
2023-03-21T01:13:12.228Z,19.01
2023-03-21T01:13:51.175Z,19.02
2023-03-21T01:14:25.919Z,19.01
2023-03-21T01:14:57.316Z,19.01
2023-03-21T01:15:28.786Z,19.01
2023-03-21T01:16:00.274Z,19.00
2023-03-21T01:16:31.892Z,19.00
2023-03-21T01:17:03.442Z,19.01
2023-03-21T01:17:34.840Z,19.00
2023-03-21T01:18:06.236Z,18.99
2023-03-21T01:18:37.647Z,18.99
2023-03-21T01:19:14.904Z,18.98
2023-03-21T01:19:53.715Z,18.96
2023-03-21T01:20:25.121Z,18.96
2023-03-21T01:20:56.509Z,18.96
2023-03-21T01:21:27.949Z,18.97
2023-03-21T01:21:59.351Z,18.96
2023-03-21T01:22:30.752Z,18.96
2023-03-21T01:23:02.158Z,18.95
2023-03-21T01:23:33.558Z,18.95
2023-03-21T01:24:04.949Z,18.95
2023-03-21T01:24:40.618Z,18.94
2023-03-21T01:25:22.612Z,18.92
2023-03-21T01:25:54.437Z,18.92
2023-03-21T01:26:25.889Z,18.92
2023-03-21T01:26:57.311Z,18.91
2023-03-21T01:27:28.746Z,18.91
2023-03-21T01:28:00.168Z,18.92
2023-03-21T01:28:31.557Z,18.91
2023-03-21T01:29:02.970Z,18.91
2023-03-21T01:29:34.357Z,18.91
2023-03-21T01:30:11.267Z,18.91
2023-03-21T01:30:48.933Z,18.90
2023-03-21T01:31:20.397Z,18.91
2023-03-21T01:31:51.818Z,18.89
2023-03-21T01:32:23.307Z,18.90
2023-03-21T01:32:54.710Z,18.89
2023-03-21T01:33:26.099Z,18.87
2023-03-21T01:33:57.490Z,18.87
2023-03-21T01:34:28.891Z,18.88
2023-03-21T01:35:00.300Z,18.87
2023-03-21T01:35:37.513Z,18.85
2023-03-21T01:36:13.630Z,18.85
2023-03-21T01:36:45.505Z,18.86
2023-03-21T01:37:16.931Z,18.88
2023-03-21T01:37:48.363Z,18.86
2023-03-21T01:38:19.783Z,18.84
2023-03-21T01:38:51.172Z,18.85
2023-03-21T01:39:22.583Z,18.85
2023-03-21T01:39:53.990Z,18.84
2023-03-21T01:40:25.403Z,18.84
2023-03-21T01:40:56.822Z,18.84
2023-03-21T01:41:36.852Z,18.84
2023-03-21T01:42:11.766Z,18.82
2023-03-21T01:42:43.164Z,18.82
2023-03-21T01:43:14.605Z,18.84
2023-03-21T01:43:46.043Z,18.82
2023-03-21T01:44:17.488Z,18.83
2023-03-21T01:44:48.912Z,18.82
2023-03-21T01:45:20.322Z,18.82
2023-03-21T01:45:51.727Z,18.83
2023-03-21T01:46:23.151Z,18.81
2023-03-21T01:47:09.187Z,18.81
2023-03-21T01:47:41.604Z,18.78
2023-03-21T01:48:13.016Z,18.78
2023-03-21T01:48:44.524Z,18.78
2023-03-21T01:49:15.932Z,18.79
2023-03-21T01:49:47.328Z,18.78
2023-03-21T01:50:18.748Z,18.77
2023-03-21T01:50:50.143Z,18.78
2023-03-21T01:51:21.576Z,18.74
2023-03-21T01:51:55.088Z,18.75
2023-03-21T01:52:43.083Z,18.74
2023-03-21T01:53:14.486Z,18.75
2023-03-21T01:53:45.922Z,18.73
2023-03-21T01:54:17.331Z,18.72
2023-03-21T01:54:48.716Z,18.72
2023-03-21T01:55:20.143Z,18.72
2023-03-21T01:55:51.602Z,18.72
2023-03-21T01:56:22.995Z,18.71
2023-03-21T01:56:54.392Z,18.72
2023-03-21T01:57:27.791Z,18.72
2023-03-21T01:58:06.699Z,18.72
2023-03-21T01:58:38.657Z,18.70
2023-03-21T01:59:10.047Z,18.69
2023-03-21T01:59:41.450Z,18.71
2023-03-21T02:00:12.911Z,18.69
2023-03-21T02:00:44.392Z,18.70
2023-03-21T02:01:15.834Z,18.69
2023-03-21T02:01:47.273Z,18.70
2023-03-21T02:02:18.679Z,18.69
2023-03-21T02:02:50.350Z,18.69
2023-03-21T02:03:34.917Z,18.70
2023-03-21T02:04:07.008Z,18.69
2023-03-21T02:04:38.422Z,18.68
2023-03-21T02:05:09.823Z,18.67
2023-03-21T02:05:41.237Z,18.66
2023-03-21T02:06:12.802Z,18.68
2023-03-21T02:06:44.214Z,18.67
2023-03-21T02:07:15.622Z,18.66
2023-03-21T02:07:47.021Z,18.67
2023-03-21T02:08:18.463Z,18.67
2023-03-21T02:08:49.904Z,18.66
2023-03-21T02:09:21.333Z,18.64
2023-03-21T02:09:52.747Z,18.64
2023-03-21T02:10:24.153Z,18.66
2023-03-21T02:10:55.552Z,18.65
2023-03-21T02:11:26.969Z,18.64
2023-03-21T02:11:58.374Z,18.63
2023-03-21T02:12:29.773Z,18.64
2023-03-21T02:13:01.189Z,18.64
2023-03-21T02:13:32.589Z,18.62
2023-03-21T02:14:06.973Z,18.63
2023-03-21T02:14:39.077Z,18.61
2023-03-21T02:15:10.538Z,18.62
2023-03-21T02:15:41.942Z,18.61
2023-03-21T02:16:13.360Z,18.62
2023-03-21T02:16:44.865Z,18.62
2023-03-21T02:17:16.311Z,18.60
2023-03-21T02:17:47.711Z,18.60
2023-03-21T02:18:19.104Z,18.61
2023-03-21T02:18:50.507Z,18.59
2023-03-21T02:19:29.622Z,18.60
2023-03-21T02:20:04.358Z,18.60
2023-03-21T02:20:35.766Z,18.58
2023-03-21T02:21:07.178Z,18.58
2023-03-21T02:21:38.582Z,18.59
2023-03-21T02:22:09.994Z,18.58
2023-03-21T02:22:41.402Z,18.57
2023-03-21T02:23:12.800Z,18.58
2023-03-21T02:23:44.193Z,18.57
2023-03-21T02:24:15.612Z,18.56
2023-03-21T02:24:54.500Z,18.58
2023-03-21T02:25:30.864Z,18.57
2023-03-21T02:26:02.276Z,18.56
2023-03-21T02:26:42.035Z,18.56
2023-03-21T02:27:14.230Z,18.54
2023-03-21T02:27:45.642Z,18.55
2023-03-21T02:28:17.024Z,18.53
2023-03-21T02:28:48.414Z,18.53
2023-03-21T02:29:19.822Z,18.53
2023-03-21T02:29:51.229Z,18.54
2023-03-21T02:30:29.372Z,18.53
2023-03-21T02:31:03.424Z,18.53
2023-03-21T02:31:34.935Z,18.50
2023-03-21T02:32:18.207Z,18.50
2023-03-21T02:32:53.899Z,18.51
2023-03-21T02:33:25.310Z,18.50
2023-03-21T02:33:56.726Z,18.52
2023-03-21T02:34:28.114Z,18.50
2023-03-21T02:35:00.747Z,18.49
2023-03-21T02:35:34.058Z,18.46
2023-03-21T02:36:14.035Z,18.46
2023-03-21T02:36:46.142Z,18.44
2023-03-21T02:37:18.023Z,18.46
2023-03-21T02:37:55.196Z,18.42
2023-03-21T02:38:31.386Z,18.44
2023-03-21T02:39:02.792Z,18.44
2023-03-21T02:39:34.194Z,18.44
2023-03-21T02:40:05.607Z,18.45
2023-03-21T02:40:37.198Z,18.43
2023-03-21T02:41:18.056Z,18.45
2023-03-21T02:41:50.322Z,18.41
2023-03-21T02:42:21.739Z,18.42
2023-03-21T02:43:00.044Z,18.41
2023-03-21T02:43:32.640Z,18.43
2023-03-21T02:44:04.042Z,18.40
2023-03-21T02:44:35.444Z,18.41
2023-03-21T02:45:06.866Z,18.40
2023-03-21T02:45:38.257Z,18.41
2023-03-21T02:46:09.727Z,18.39
2023-03-21T02:46:47.052Z,18.41
2023-03-21T02:47:20.533Z,18.38
2023-03-21T02:47:51.992Z,18.38
2023-03-21T02:48:29.372Z,18.37
2023-03-21T02:49:04.665Z,18.37
2023-03-21T02:49:36.075Z,18.36
2023-03-21T02:50:07.490Z,18.36
2023-03-21T02:50:39.049Z,18.39
2023-03-21T02:51:10.644Z,18.37
2023-03-21T02:51:42.033Z,18.36
2023-03-21T02:52:18.714Z,18.37
2023-03-21T02:52:57.120Z,18.32
2023-03-21T02:53:28.534Z,18.32
2023-03-21T02:54:25.021Z,18.34
2023-03-21T02:54:51.315Z,18.35
2023-03-21T02:55:22.730Z,18.36
2023-03-21T02:55:54.144Z,18.37
2023-03-21T02:56:25.571Z,18.36
2023-03-21T02:56:56.988Z,18.34
2023-03-21T02:57:40.065Z,18.35
2023-03-21T02:58:13.862Z,18.36
2023-03-21T02:58:45.273Z,18.35
2023-03-21T02:59:16.692Z,18.34
2023-03-21T02:59:55.447Z,18.34
2023-03-21T03:00:27.069Z,18.34
2023-03-21T03:00:58.479Z,18.35
2023-03-21T03:01:29.878Z,18.32
2023-03-21T03:02:01.320Z,18.32
2023-03-21T03:02:32.731Z,18.32
2023-03-21T03:03:09.907Z,18.32
2023-03-21T03:03:42.814Z,18.32
2023-03-21T03:04:14.253Z,18.33
2023-03-21T03:04:45.694Z,18.33
2023-03-21T03:05:21.373Z,18.31
2023-03-21T03:05:53.079Z,18.32
2023-03-21T03:06:24.499Z,18.28
2023-03-21T03:06:55.896Z,18.30
2023-03-21T03:07:27.302Z,18.30
2023-03-21T03:07:58.720Z,18.29
2023-03-21T03:08:41.383Z,18.29
2023-03-21T03:09:18.892Z,18.28
2023-03-21T03:09:50.333Z,18.27
2023-03-21T03:10:21.745Z,18.29
2023-03-21T03:10:53.153Z,18.30
2023-03-21T03:11:24.549Z,18.29
2023-03-21T03:11:55.967Z,18.28
2023-03-21T03:12:27.353Z,18.29
2023-03-21T03:12:58.738Z,18.30
2023-03-21T03:13:30.138Z,18.30
2023-03-21T03:14:15.597Z,18.30
2023-03-21T03:15:02.705Z,18.28
2023-03-21T03:15:34.763Z,18.28
2023-03-21T03:16:06.214Z,18.27
2023-03-21T03:16:37.671Z,18.27
2023-03-21T03:17:09.075Z,18.27
2023-03-21T03:17:40.482Z,18.28
2023-03-21T03:18:11.866Z,18.27
2023-03-21T03:18:43.315Z,18.28
2023-03-21T03:19:14.719Z,18.27
2023-03-21T03:19:50.608Z,18.25
2023-03-21T03:20:22.761Z,18.27
2023-03-21T03:20:54.195Z,18.28
2023-03-21T03:21:25.586Z,18.28
2023-03-21T03:21:56.993Z,18.27
2023-03-21T03:22:28.417Z,18.26
2023-03-21T03:22:59.825Z,18.27
2023-03-21T03:23:31.214Z,18.26
2023-03-21T03:24:02.618Z,18.27
2023-03-21T03:24:34.035Z,18.27
2023-03-21T03:25:18.621Z,18.26
2023-03-21T03:25:54.393Z,18.26
2023-03-21T03:26:25.796Z,18.26
2023-03-21T03:26:57.227Z,18.26
2023-03-21T03:27:28.616Z,18.27
2023-03-21T03:28:00.028Z,18.25
2023-03-21T03:28:31.421Z,18.26
2023-03-21T03:29:02.839Z,18.28
2023-03-21T03:29:34.255Z,18.26
2023-03-21T03:30:05.699Z,18.25
2023-03-21T03:30:44.729Z,18.26
2023-03-21T03:31:20.962Z,18.23
2023-03-21T03:31:52.470Z,18.24
2023-03-21T03:32:23.929Z,18.24
2023-03-21T03:32:55.320Z,18.25
2023-03-21T03:33:26.725Z,18.26
2023-03-21T03:33:58.111Z,18.26
2023-03-21T03:34:29.535Z,18.24
2023-03-21T03:35:00.941Z,18.25
2023-03-21T03:35:32.340Z,18.25
2023-03-21T03:36:06.556Z,18.25
2023-03-21T03:36:38.299Z,18.24
2023-03-21T03:37:09.716Z,18.25
2023-03-21T03:37:41.112Z,18.23
2023-03-21T03:38:12.528Z,18.23
2023-03-21T03:38:43.941Z,18.24
2023-03-21T03:39:15.470Z,18.24
2023-03-21T03:39:46.896Z,18.24
2023-03-21T03:40:18.321Z,18.24
2023-03-21T03:40:49.746Z,18.24
2023-03-21T03:41:21.380Z,18.23
2023-03-21T03:42:21.663Z,18.24
2023-03-21T03:42:44.166Z,18.23
2023-03-21T03:43:15.581Z,18.23
2023-03-21T03:43:46.992Z,18.24
2023-03-21T03:44:18.426Z,18.24
2023-03-21T03:44:49.838Z,18.23
2023-03-21T03:45:21.230Z,18.23
2023-03-21T03:45:52.644Z,18.20
2023-03-21T03:46:24.134Z,18.22
2023-03-21T03:46:55.625Z,18.23
2023-03-21T03:47:33.761Z,18.22
2023-03-21T03:48:07.634Z,18.20
2023-03-21T03:48:39.087Z,18.22
2023-03-21T03:49:10.480Z,18.20
2023-03-21T03:49:41.936Z,18.20
2023-03-21T03:50:13.349Z,18.20
2023-03-21T03:50:44.792Z,18.21
2023-03-21T03:51:16.207Z,18.20
2023-03-21T03:51:47.629Z,18.20
2023-03-21T03:52:19.048Z,18.20
2023-03-21T03:52:56.993Z,18.20
2023-03-21T03:53:29.109Z,18.22
2023-03-21T03:54:00.521Z,18.19
2023-03-21T03:54:31.952Z,18.20
2023-03-21T03:55:03.368Z,18.18
2023-03-21T03:55:34.891Z,18.18
2023-03-21T03:56:06.296Z,18.19
2023-03-21T03:56:37.726Z,18.19
2023-03-21T03:57:09.193Z,18.22
2023-03-21T03:57:40.611Z,18.19
2023-03-21T03:58:21.598Z,18.19
2023-03-21T03:58:54.456Z,18.18
2023-03-21T03:59:25.869Z,18.18
2023-03-21T03:59:57.305Z,18.18
2023-03-21T04:00:28.719Z,18.17
2023-03-21T04:01:00.110Z,18.17
2023-03-21T04:01:31.581Z,18.17
2023-03-21T04:02:03.018Z,18.17
2023-03-21T04:02:34.493Z,18.17
2023-03-21T04:03:06.005Z,18.17
2023-03-21T04:03:48.355Z,18.16
2023-03-21T04:04:20.242Z,18.17
2023-03-21T04:04:51.732Z,18.17
2023-03-21T04:05:23.134Z,18.16
2023-03-21T04:05:54.528Z,18.18
2023-03-21T04:06:25.952Z,18.17
2023-03-21T04:06:58.146Z,18.15
2023-03-21T04:07:29.633Z,18.16
2023-03-21T04:08:01.040Z,18.15
2023-03-21T04:08:32.443Z,18.14
2023-03-21T04:09:13.695Z,18.16
2023-03-21T04:09:50.362Z,18.14
2023-03-21T04:10:21.771Z,18.14
2023-03-21T04:10:53.195Z,18.13
2023-03-21T04:11:24.608Z,18.14
2023-03-21T04:11:56.014Z,18.14
2023-03-21T04:12:27.470Z,18.13
2023-03-21T04:12:58.863Z,18.12
2023-03-21T04:13:30.259Z,18.13
2023-03-21T04:14:01.660Z,18.13
2023-03-21T04:14:44.073Z,18.13
2023-03-21T04:15:16.942Z,18.13
2023-03-21T04:15:48.380Z,18.11
2023-03-21T04:16:19.834Z,18.12
2023-03-21T04:16:51.254Z,18.11
2023-03-21T04:17:22.668Z,18.11
2023-03-21T04:17:54.106Z,18.10
2023-03-21T04:18:25.512Z,18.11
2023-03-21T04:18:56.940Z,18.11
2023-03-21T04:19:28.346Z,18.11
2023-03-21T04:20:10.629Z,18.10
2023-03-21T04:20:44.779Z,18.10
2023-03-21T04:21:16.385Z,18.10
2023-03-21T04:21:47.804Z,18.09
2023-03-21T04:22:19.192Z,18.09
2023-03-21T04:22:50.592Z,18.08
2023-03-21T04:23:22.040Z,18.07
2023-03-21T04:23:53.427Z,18.08
2023-03-21T04:24:24.817Z,18.08
2023-03-21T04:24:56.239Z,18.07
2023-03-21T04:25:33.778Z,18.06
2023-03-21T04:26:05.830Z,18.06
2023-03-21T04:26:37.267Z,18.06
2023-03-21T04:27:08.671Z,18.07
2023-03-21T04:27:40.090Z,18.06
2023-03-21T04:28:11.506Z,18.05
2023-03-21T04:28:42.950Z,18.05
2023-03-21T04:29:14.371Z,18.03
2023-03-21T04:29:45.756Z,18.04
2023-03-21T04:30:17.200Z,18.04
2023-03-21T04:31:00.737Z,18.04
2023-03-21T04:31:33.575Z,18.03
2023-03-21T04:32:05.010Z,18.04
2023-03-21T04:32:36.442Z,18.04
2023-03-21T04:33:07.861Z,18.03
2023-03-21T04:33:39.261Z,18.03
2023-03-21T04:34:10.660Z,18.02
2023-03-21T04:34:42.066Z,18.02
2023-03-21T04:35:13.513Z,18.02
2023-03-21T04:35:44.946Z,18.02
2023-03-21T04:36:16.366Z,18.01
2023-03-21T04:36:47.775Z,18.01
2023-03-21T04:37:19.450Z,18.01
2023-03-21T04:37:50.855Z,18.01
2023-03-21T04:38:22.281Z,17.99
2023-03-21T04:38:53.782Z,18.00
2023-03-21T04:39:25.185Z,18.00
2023-03-21T04:39:56.570Z,18.00
2023-03-21T04:40:28.081Z,18.00
2023-03-21T04:40:59.480Z,18.00
2023-03-21T04:41:30.902Z,18.00
2023-03-21T04:42:02.331Z,17.99
2023-03-21T04:42:33.745Z,17.99
2023-03-21T04:43:05.175Z,17.99
2023-03-21T04:43:36.564Z,17.99
2023-03-21T04:44:07.975Z,17.97
2023-03-21T04:44:39.413Z,17.98
2023-03-21T04:45:10.833Z,17.98
2023-03-21T04:45:42.505Z,17.96
2023-03-21T04:46:14.175Z,17.96
2023-03-21T04:46:45.627Z,17.97
2023-03-21T04:47:17.031Z,17.96
2023-03-21T04:47:48.454Z,17.95
2023-03-21T04:48:19.925Z,17.95
2023-03-21T04:48:51.351Z,17.94
2023-03-21T04:49:22.806Z,17.95
2023-03-21T04:49:54.206Z,17.95
2023-03-21T04:50:25.615Z,17.95
2023-03-21T04:50:57.014Z,17.96
2023-03-21T04:51:28.406Z,17.94
2023-03-21T04:51:59.826Z,17.95
2023-03-21T04:52:31.244Z,17.96
2023-03-21T04:53:02.635Z,17.93
2023-03-21T04:53:34.031Z,17.94
2023-03-21T04:54:05.443Z,17.93
2023-03-21T04:54:36.929Z,17.94
2023-03-21T04:55:08.331Z,17.92
2023-03-21T04:55:39.747Z,17.92
2023-03-21T04:56:11.139Z,17.94
2023-03-21T04:56:42.544Z,17.91
2023-03-21T04:57:13.958Z,17.91
2023-03-21T04:57:45.375Z,17.92
2023-03-21T04:58:16.770Z,17.91
2023-03-21T04:58:48.178Z,17.90
2023-03-21T04:59:19.580Z,17.91
2023-03-21T04:59:51.007Z,17.92
2023-03-21T05:00:22.399Z,17.90
2023-03-21T05:00:53.828Z,17.90
2023-03-21T05:01:25.371Z,17.90
2023-03-21T05:01:56.789Z,17.90
2023-03-21T05:02:28.214Z,17.89
2023-03-21T05:02:59.631Z,17.89
2023-03-21T05:03:32.270Z,17.89
2023-03-21T05:04:03.740Z,17.88
2023-03-21T05:04:35.227Z,17.88
2023-03-21T05:05:06.666Z,17.87
2023-03-21T05:05:38.278Z,17.87
2023-03-21T05:06:09.887Z,17.86
2023-03-21T05:06:41.331Z,17.86
2023-03-21T05:07:12.760Z,17.87
2023-03-21T05:07:44.168Z,17.85
2023-03-21T05:08:15.631Z,17.86
2023-03-21T05:08:47.066Z,17.86
2023-03-21T05:09:18.468Z,17.85
2023-03-21T05:09:49.914Z,17.86
2023-03-21T05:10:21.338Z,17.86
2023-03-21T05:10:52.744Z,17.85
2023-03-21T05:11:24.155Z,17.84
2023-03-21T05:11:55.542Z,17.81
2023-03-21T05:12:26.939Z,17.82
2023-03-21T05:12:58.370Z,17.83
2023-03-21T05:13:29.777Z,17.83
2023-03-21T05:14:01.185Z,17.80
2023-03-21T05:14:32.589Z,17.80
2023-03-21T05:15:04.003Z,17.80
2023-03-21T05:15:35.606Z,17.80
2023-03-21T05:16:07.110Z,17.80
2023-03-21T05:16:38.634Z,17.79
2023-03-21T05:17:10.119Z,17.76
2023-03-21T05:17:41.568Z,17.77
2023-03-21T05:18:12.960Z,17.75
2023-03-21T05:18:44.366Z,17.75
2023-03-21T05:19:15.774Z,17.74
2023-03-21T05:19:47.163Z,17.75
2023-03-21T05:20:18.564Z,17.77
2023-03-21T05:20:49.972Z,17.75
2023-03-21T05:21:21.397Z,17.73
2023-03-21T05:21:52.805Z,17.73
2023-03-21T05:22:24.209Z,17.74
2023-03-21T05:22:55.623Z,17.75
2023-03-21T05:23:27.015Z,17.73
2023-03-21T05:23:58.513Z,17.75
2023-03-21T05:24:29.954Z,17.75
2023-03-21T05:25:01.371Z,17.75
2023-03-21T05:25:32.784Z,17.74
2023-03-21T05:26:04.238Z,17.74
2023-03-21T05:26:35.638Z,17.74
2023-03-21T05:27:07.049Z,17.74
2023-03-21T05:27:38.463Z,17.73
2023-03-21T05:28:09.888Z,17.73
2023-03-21T05:28:41.298Z,17.74
2023-03-21T05:29:12.701Z,17.75
2023-03-21T05:29:44.090Z,17.74
2023-03-21T05:30:15.474Z,17.75
2023-03-21T05:30:46.961Z,17.75
2023-03-21T05:31:18.522Z,17.75
2023-03-21T05:31:49.975Z,17.74
2023-03-21T05:32:21.416Z,17.75
2023-03-21T05:32:52.807Z,17.74
2023-03-21T05:33:24.222Z,17.76
2023-03-21T05:33:55.641Z,17.76
2023-03-21T05:34:27.048Z,17.75
2023-03-21T05:34:58.467Z,17.75
2023-03-21T05:35:29.885Z,17.76
2023-03-21T05:36:01.330Z,17.75
2023-03-21T05:36:32.777Z,17.75
2023-03-21T05:37:04.177Z,17.75
2023-03-21T05:37:35.590Z,17.76
2023-03-21T05:38:06.983Z,17.77
2023-03-21T05:38:38.385Z,17.76
2023-03-21T05:39:09.795Z,17.77
2023-03-21T05:39:41.204Z,17.76
2023-03-21T05:40:12.611Z,17.77
2023-03-21T05:40:44.048Z,17.78
2023-03-21T05:41:15.458Z,17.78
2023-03-21T05:41:46.909Z,17.78
2023-03-21T05:42:18.320Z,17.78
2023-03-21T05:42:49.763Z,17.79
2023-03-21T05:43:21.182Z,17.79
2023-03-21T05:43:52.610Z,17.78
2023-03-21T05:44:24.006Z,17.80
2023-03-21T05:44:55.409Z,17.81
2023-03-21T05:45:26.832Z,17.82
2023-03-21T05:45:58.313Z,17.81
2023-03-21T05:46:29.764Z,17.82
2023-03-21T05:47:01.186Z,17.81
2023-03-21T05:47:32.576Z,17.82
2023-03-21T05:48:04.043Z,17.83
2023-03-21T05:48:35.473Z,17.82
2023-03-21T05:49:06.912Z,17.83
2023-03-21T05:49:38.331Z,17.83
2023-03-21T05:50:09.739Z,17.84
2023-03-21T05:50:41.129Z,17.84
2023-03-21T05:51:12.521Z,17.84
2023-03-21T05:51:43.941Z,17.84
2023-03-21T05:52:15.357Z,17.85
2023-03-21T05:52:46.747Z,17.86
2023-03-21T05:53:18.189Z,17.85
2023-03-21T05:53:49.608Z,17.86
2023-03-21T05:54:21.027Z,17.87
2023-03-21T05:54:52.436Z,17.87
2023-03-21T05:55:23.834Z,17.86
2023-03-21T05:55:55.246Z,17.87
2023-03-21T05:56:26.656Z,17.86
2023-03-21T05:56:58.065Z,17.88
2023-03-21T05:57:29.499Z,17.87
2023-03-21T05:58:00.920Z,17.87
2023-03-21T05:58:32.315Z,17.87
2023-03-21T05:59:03.748Z,17.88
2023-03-21T05:59:35.136Z,17.88
2023-03-21T06:00:06.537Z,17.88
2023-03-21T06:00:37.941Z,17.88
2023-03-21T06:01:09.362Z,17.89
2023-03-21T06:01:40.772Z,17.89
2023-03-21T06:02:12.212Z,17.90
2023-03-21T06:02:43.667Z,17.90
2023-03-21T06:03:15.089Z,17.90
2023-03-21T06:03:46.523Z,17.90
2023-03-21T06:04:18.001Z,17.91
2023-03-21T06:04:49.473Z,17.91
2023-03-21T06:05:20.891Z,17.91
2023-03-21T06:05:52.293Z,17.90
2023-03-21T06:06:23.708Z,17.91
2023-03-21T06:06:55.122Z,17.91
2023-03-21T06:07:26.558Z,17.92
2023-03-21T06:07:57.981Z,17.91
2023-03-21T06:08:29.414Z,17.91
2023-03-21T06:09:00.805Z,17.92
2023-03-21T06:09:32.214Z,17.92
2023-03-21T06:10:03.631Z,17.94
2023-03-21T06:10:35.038Z,17.94
2023-03-21T06:11:06.443Z,17.94
2023-03-21T06:11:37.855Z,17.94
2023-03-21T06:12:09.270Z,17.94
2023-03-21T06:12:40.692Z,17.94
2023-03-21T06:13:12.096Z,17.94
2023-03-21T06:13:43.498Z,17.95
2023-03-21T06:14:14.895Z,17.95
2023-03-21T06:14:46.313Z,17.95
2023-03-21T06:15:17.732Z,17.95
2023-03-21T06:15:49.165Z,17.96
2023-03-21T06:16:20.687Z,17.95
2023-03-21T06:16:52.108Z,17.96
2023-03-21T06:17:23.520Z,17.95
2023-03-21T06:17:54.927Z,17.95
2023-03-21T06:18:26.352Z,17.95
2023-03-21T06:18:57.776Z,17.96
2023-03-21T06:19:29.189Z,17.95
2023-03-21T06:20:00.610Z,17.97
2023-03-21T06:20:31.998Z,17.96
2023-03-21T06:21:03.415Z,17.97
2023-03-21T06:21:34.845Z,17.97
2023-03-21T06:22:06.257Z,17.97
2023-03-21T06:22:37.688Z,17.96
2023-03-21T06:23:09.152Z,17.98
2023-03-21T06:23:40.565Z,17.98
2023-03-21T06:24:11.966Z,17.98
2023-03-21T06:24:43.383Z,17.97
2023-03-21T06:25:14.772Z,17.98
2023-03-21T06:25:46.187Z,17.99
2023-03-21T06:26:17.657Z,17.98
2023-03-21T06:26:49.092Z,17.98
2023-03-21T06:27:20.485Z,17.99
2023-03-21T06:27:51.882Z,17.99
2023-03-21T06:28:23.318Z,17.98
2023-03-21T06:28:54.709Z,17.99
2023-03-21T06:29:26.125Z,17.99
2023-03-21T06:29:57.525Z,17.98
2023-03-21T06:30:28.937Z,17.99
2023-03-21T06:31:00.354Z,17.99
2023-03-21T06:31:31.812Z,17.99
2023-03-21T06:32:03.228Z,18.01
2023-03-21T06:32:34.622Z,17.99
2023-03-21T06:33:06.047Z,18.00
2023-03-21T06:33:37.488Z,17.99
2023-03-21T06:34:08.880Z,17.99
2023-03-21T06:34:40.281Z,17.99
2023-03-21T06:35:11.693Z,17.99
2023-03-21T06:35:43.136Z,17.99
2023-03-21T06:36:14.558Z,17.99
2023-03-21T06:36:45.946Z,18.00
2023-03-21T06:37:17.363Z,17.99
2023-03-21T06:37:48.779Z,18.00
2023-03-21T06:38:20.167Z,18.01
2023-03-21T06:38:51.579Z,17.99
2023-03-21T06:39:22.976Z,18.00
2023-03-21T06:39:55.560Z,18.00
2023-03-21T06:40:27.148Z,18.01
2023-03-21T06:40:58.547Z,18.01
2023-03-21T06:41:29.964Z,18.01
2023-03-21T06:42:01.390Z,18.01
2023-03-21T06:42:32.793Z,18.01
2023-03-21T06:43:04.206Z,18.01
2023-03-21T06:43:35.572Z,18.02
2023-03-21T06:44:07.010Z,18.01
2023-03-21T06:44:38.405Z,18.00
2023-03-21T06:45:09.809Z,18.01
2023-03-21T06:45:41.941Z,18.01
2023-03-21T06:46:13.752Z,18.01
2023-03-21T06:46:50.840Z,18.02
2023-03-21T06:47:23.599Z,18.02
2023-03-21T06:47:55.549Z,18.03
2023-03-21T06:48:27.033Z,18.02
2023-03-21T06:48:58.446Z,18.03
2023-03-21T06:49:30.511Z,18.03
2023-03-21T06:50:02.186Z,18.03
2023-03-21T06:50:33.970Z,18.03
2023-03-21T06:51:05.477Z,18.05
2023-03-21T06:51:36.894Z,18.05
2023-03-21T06:52:08.322Z,18.04
2023-03-21T06:52:39.730Z,18.05
2023-03-21T06:53:11.118Z,18.06
2023-03-21T06:53:42.506Z,18.06
2023-03-21T06:54:15.008Z,18.06
2023-03-21T06:54:47.066Z,18.06
2023-03-21T06:55:19.629Z,18.05
2023-03-21T06:55:51.753Z,18.05
2023-03-21T06:56:23.657Z,18.06
2023-03-21T06:56:55.569Z,18.06
2023-03-21T06:57:27.376Z,18.06